Terminal Aerodrome Forecast
Issued by NWS Billings, MT

Home | Current Version | Previous Version | Text Only | Print | Product List | Glossary On
Versions: 1 2 3 4 5 6 7 8 9 10 11 12 13 14 15 16 17 18 19 20 21 22 23 24 25 26 27 28 29 30
000
FTUS45 KBYZ 181123
TAFBIL
TAF
KBIL 181123Z 1812/1912 24010KT P6SM FEW080 SCT130
     FM181900 32009KT P6SM VCTS SCT060CB BKN150
     FM190400 25008KT P6SM FEW090 BKN120=

USA.gov is the U.S. government's official web portal to all federal, state and local government web resources and services.